Time;durP1;ratioP1;P1;durP2;ratioP2;P2;SDS_P1;SDS_P2;PMS_P1;PMS_P2;Temp;Humidity;BMP_temperature;BMP_pressure;BME280_temperature;BME280_humidity;BME280_pressure;Samples;Min_cycle;Max_cycle;Signal;HPM_P1;HPM_P2
2023/08/09 00:00:43;;;;;;;2.70;1.67;;;22.30;52.10;;;;;;5036439;28;20299;-77
2023/08/09 00:03:10;;;;;;;2.20;1.80;;;22.30;52.10;;;;;;5036418;28;20192;-77
2023/08/09 00:05:37;;;;;;;1.95;1.77;;;22.20;52.10;;;;;;5036988;28;20242;-77
2023/08/09 00:08:05;;;;;;;2.88;2.05;;;22.30;52.10;;;;;;5036392;28;20220;-77
2023/08/09 00:10:32;;;;;;;3.35;1.85;;;22.20;52.20;;;;;;5001610;28;20224;-77
2023/08/09 00:12:59;;;;;;;1.80;1.67;;;22.20;52.20;;;;;;5018943;28;20191;-77
2023/08/09 00:15:27;;;;;;;2.63;1.63;;;22.20;52.20;;;;;;5018774;28;20246;-77
2023/08/09 00:17:55;;;;;;;2.00;1.77;;;22.20;52.30;;;;;;5036638;28;20243;-77
2023/08/09 00:20:23;;;;;;;2.08;1.70;;;22.20;52.30;;;;;;5018803;28;20220;-77
2023/08/09 00:22:50;;;;;;;3.13;1.67;;;22.20;52.30;;;;;;5050375;22;20648;-80
2023/08/09 00:25:18;;;;;;;1.90;1.67;;;22.20;52.30;;;;;;4995555;28;20201;-82
2023/08/09 00:27:44;;;;;;;2.17;1.67;;;22.20;52.50;;;;;;4995622;28;20204;-82
2023/08/09 00:30:12;;;;;;;2.03;1.65;;;22.20;52.50;;;;;;4995494;28;20291;-82
2023/08/09 00:32:39;;;;;;;1.70;1.60;;;22.20;52.60;;;;;;4995651;28;20198;-82
2023/08/09 00:35:12;;;;;;;2.08;1.60;;;22.20;52.60;;;;;;4995523;28;20231;-82
2023/08/09 00:37:39;;;;;;;1.73;1.63;;;22.10;52.60;;;;;;4995627;28;20217;-82
2023/08/09 00:40:11;;;;;;;1.92;1.73;;;22.10;52.60;;;;;;4979341;28;20648;-82
2023/08/09 00:42:39;;;;;;;2.22;1.77;;;22.10;52.60;;;;;;4996977;28;20204;-82
2023/08/09 00:45:07;;;;;;;2.03;1.70;;;22.10;52.80;;;;;;4996456;28;20252;-82
2023/08/09 00:47:35;;;;;;;1.88;1.60;;;22.10;52.80;;;;;;4995982;28;20704;-82
2023/08/09 00:50:02;;;;;;;1.80;1.70;;;22.10;52.80;;;;;;4995984;28;20640;-82
2023/08/09 00:52:31;;;;;;;1.90;1.60;;;22.10;52.90;;;;;;4996106;28;20205;-82
2023/08/09 00:54:58;;;;;;;1.88;1.58;;;22.10;53.00;;;;;;4995855;28;20197;-82
2023/08/09 00:57:25;;;;;;;1.88;1.55;;;22.00;53.00;;;;;;4995496;28;20225;-82
2023/08/09 00:59:52;;;;;;;2.10;1.80;;;22.00;53.20;;;;;;4995475;28;20205;-82
2023/08/09 01:02:19;;;;;;;1.77;1.48;;;22.00;53.20;;;;;;4995922;28;20252;-82
2023/08/09 01:04:46;;;;;;;1.80;1.70;;;22.00;53.20;;;;;;4995830;28;20202;-82
2023/08/09 01:07:16;;;;;;;1.80;1.70;;;22.00;53.30;;;;;;4996053;28;20240;-82
2023/08/09 01:09:49;;;;;;;2.90;1.70;;;22.00;53.30;;;;;;4996291;28;20181;-82
2023/08/09 01:12:20;;;;;;;2.28;1.55;;;22.00;53.30;;;;;;4996123;28;20197;-82
2023/08/09 01:14:51;;;;;;;1.65;1.52;;;22.00;53.40;;;;;;4979454;28;20272;-82
2023/08/09 01:17:18;;;;;;;1.90;1.80;;;21.90;53.20;;;;;;4995770;28;20244;-82
2023/08/09 01:19:48;;;;;;;2.05;1.80;;;21.90;53.30;;;;;;4994105;28;20252;-82
2023/08/09 01:22:16;;;;;;;2.97;1.80;;;21.90;53.40;;;;;;4994728;28;20225;-82
2023/08/09 01:24:45;;;;;;;1.70;1.60;;;21.90;53.40;;;;;;4994912;28;20216;-82
2023/08/09 01:27:13;;;;;;;2.35;1.40;;;21.90;53.40;;;;;;4994914;28;20201;-82
2023/08/09 01:29:40;;;;;;;1.92;1.70;;;21.90;53.40;;;;;;4994824;28;20227;-82
2023/08/09 01:32:08;;;;;;;1.52;1.42;;;21.90;53.40;;;;;;4994798;28;20225;-82
2023/08/09 01:34:35;;;;;;;1.95;1.75;;;21.90;53.50;;;;;;4994665;28;20560;-82
2023/08/09 01:37:05;;;;;;;1.73;1.63;;;21.80;53.40;;;;;;4994624;28;20207;-82
2023/08/09 01:39:33;;;;;;;1.73;1.63;;;21.90;53.60;;;;;;4994519;28;20209;-82
2023/08/09 01:42:02;;;;;;;1.67;1.58;;;21.90;53.50;;;;;;4994979;28;20647;-81
2023/08/09 01:44:29;;;;;;;2.28;1.88;;;21.80;53.50;;;;;;4994831;28;20198;-82
2023/08/09 01:46:56;;;;;;;2.22;1.60;;;21.80;53.50;;;;;;4994276;28;20577;-82
2023/08/09 01:49:23;;;;;;;2.20;1.52;;;21.80;53.50;;;;;;4995125;28;20216;-82
2023/08/09 01:51:52;;;;;;;1.50;1.40;;;21.80;53.50;;;;;;4994395;28;20337;-82
2023/08/09 01:54:19;;;;;;;2.05;1.85;;;21.80;53.60;;;;;;5001841;28;20668;-82
2023/08/09 01:56:47;;;;;;;2.05;1.50;;;21.80;53.60;;;;;;5002672;28;20199;-82
2023/08/09 01:59:18;;;;;;;1.60;1.50;;;21.80;53.70;;;;;;4995077;28;20607;-82
2023/08/09 02:01:45;;;;;;;2.65;1.60;;;21.80;53.70;;;;;;4994723;28;20221;-82
2023/08/09 02:04:12;;;;;;;2.13;1.85;;;21.80;53.70;;;;;;4995196;28;20205;-82
2023/08/09 02:06:39;;;;;;;1.75;1.63;;;21.80;54.10;;;;;;4994565;28;20194;-82
2023/08/09 02:09:06;;;;;;;2.20;1.50;;;21.80;53.80;;;;;;4994576;28;20197;-82
2023/08/09 02:11:33;;;;;;;1.90;1.80;;;21.80;53.90;;;;;;4994470;28;20586;-80
2023/08/09 02:14:01;;;;;;;1.83;1.40;;;21.80;54.00;;;;;;4994386;28;20228;-82
2023/08/09 02:16:30;;;;;;;1.70;1.60;;;21.80;54.10;;;;;;4994273;28;20197;-82
2023/08/09 02:18:56;;;;;;;2.03;1.80;;;21.80;54.00;;;;;;4993929;28;20589;-82
2023/08/09 02:21:25;;;;;;;2.17;1.98;;;21.80;54.10;;;;;;4994438;28;20232;-82
2023/08/09 02:23:52;;;;;;;1.48;1.38;;;21.90;54.20;;;;;;5000810;28;20194;-82
2023/08/09 02:26:19;;;;;;;2.00;1.80;;;21.80;54.10;;;;;;5013080;28;20211;-82
2023/08/09 02:28:48;;;;;;;1.83;1.40;;;21.80;54.10;;;;;;5013457;28;20189;-81
2023/08/09 02:31:18;;;;;;;3.72;1.60;;;21.80;54.10;;;;;;5010935;28;20221;-81
2023/08/09 02:33:47;;;;;;;2.00;1.80;;;21.80;54.20;;;;;;5003679;28;20615;-81
2023/08/09 02:36:14;;;;;;;1.70;1.60;;;21.80;54.20;;;;;;5003497;28;20223;-81
2023/08/09 02:38:42;;;;;;;1.90;1.70;;;21.80;54.30;;;;;;4987441;28;20240;-81
2023/08/09 02:41:09;;;;;;;2.03;1.65;;;21.80;54.20;;;;;;5003360;28;20236;-81
2023/08/09 02:43:37;;;;;;;1.70;1.60;;;21.80;54.30;;;;;;5003808;28;20272;-81
2023/08/09 02:46:05;;;;;;;1.83;1.70;;;21.80;54.30;;;;;;5003320;28;20205;-82
2023/08/09 02:48:32;;;;;;;1.60;1.50;;;21.80;54.40;;;;;;5003039;28;20197;-82
2023/08/09 02:51:03;;;;;;;2.22;1.80;;;21.80;54.40;;;;;;5018616;28;20315;-82
2023/08/09 02:53:33;;;;;;;2.60;1.60;;;21.70;54.30;;;;;;5003286;28;20194;-82
2023/08/09 02:56:00;;;;;;;1.75;1.48;;;21.70;54.40;;;;;;5001789;28;20667;-82
2023/08/09 02:58:28;;;;;;;2.20;1.70;;;21.70;54.40;;;;;;4997653;28;20228;-82
2023/08/09 03:00:55;;;;;;;2.40;1.77;;;21.70;55.00;;;;;;4997701;28;20221;-82
2023/08/09 03:03:22;;;;;;;1.70;1.60;;;21.70;54.50;;;;;;4998465;28;20198;-82
2023/08/09 03:05:50;;;;;;;1.83;1.65;;;21.70;54.60;;;;;;4997448;28;20227;-82
2023/08/09 03:08:19;;;;;;;1.55;1.45;;;21.70;54.80;;;;;;4997436;28;20202;-82
2023/08/09 03:10:46;;;;;;;2.45;1.90;;;21.70;55.00;;;;;;4997139;28;20228;-82
2023/08/09 03:13:13;;;;;;;2.78;1.80;;;21.70;55.00;;;;;;4981399;28;20652;-82
2023/08/09 03:15:41;;;;;;;2.00;1.58;;;21.70;55.20;;;;;;4997634;28;20198;-82
2023/08/09 03:18:07;;;;;;;1.80;1.70;;;21.70;55.20;;;;;;4981558;28;20280;-82
2023/08/09 03:20:37;;;;;;;1.50;1.40;;;21.70;55.20;;;;;;4996935;28;20222;-82
2023/08/09 03:23:04;;;;;;;2.58;1.67;;;21.70;55.10;;;;;;4997098;28;20244;-82
2023/08/09 03:25:34;;;;;;;1.60;1.50;;;21.80;55.00;;;;;;4996886;28;20265;-82
2023/08/09 03:28:01;;;;;;;3.45;1.77;;;21.80;55.00;;;;;;4997529;28;20284;-82
2023/08/09 03:30:28;;;;;;;2.22;1.50;;;21.90;54.90;;;;;;4996573;28;20684;-82
2023/08/09 03:32:56;;;;;;;2.08;1.90;;;22.00;54.80;;;;;;4996539;28;20194;-82
2023/08/09 03:35:23;;;;;;;2.10;1.58;;;22.10;54.60;;;;;;4997564;28;20201;-82
2023/08/09 03:37:50;;;;;;;2.00;1.80;;;22.10;54.50;;;;;;4996770;28;20296;-82
2023/08/09 03:40:18;;;;;;;1.77;1.67;;;22.10;54.50;;;;;;4996740;28;20639;-82
2023/08/09 03:42:46;;;;;;;1.70;1.60;;;22.10;54.50;;;;;;4996896;28;20194;-82
2023/08/09 03:45:13;;;;;;;1.60;1.50;;;22.10;54.60;;;;;;4997464;28;20202;-82
2023/08/09 03:47:41;;;;;;;1.70;1.60;;;22.10;54.60;;;;;;4996646;28;20219;-82
2023/08/09 03:50:10;;;;;;;3.15;1.75;;;22.10;54.70;;;;;;4980665;28;20202;-82
2023/08/09 03:52:37;;;;;;;2.17;1.70;;;22.00;54.70;;;;;;4996463;28;20247;-82
2023/08/09 03:55:06;;;;;;;1.95;1.73;;;22.00;54.80;;;;;;4996912;28;20229;-82
2023/08/09 03:57:33;;;;;;;1.70;1.60;;;22.00;54.70;;;;;;5012760;28;20206;-82
2023/08/09 04:00:03;;;;;;;1.90;1.75;;;22.00;54.70;;;;;;4997780;28;20720;-82
2023/08/09 04:02:39;;;;;;;2.08;1.50;;;22.00;54.80;;;;;;5002218;28;20177;-82
2023/08/09 04:05:06;;;;;;;1.70;1.60;;;22.00;54.80;;;;;;5006152;28;20636;-82
2023/08/09 04:07:34;;;;;;;1.92;1.60;;;22.00;54.80;;;;;;4998620;28;20202;-82
2023/08/09 04:10:01;;;;;;;1.80;1.70;;;21.90;54.80;;;;;;4996213;28;20232;-82
2023/08/09 04:12:28;;;;;;;1.70;1.50;;;21.90;54.80;;;;;;4980531;28;20198;-82
2023/08/09 04:14:56;;;;;;;2.70;1.70;;;21.90;54.80;;;;;;4996513;28;20267;-82
2023/08/09 04:17:24;;;;;;;1.73;1.60;;;22.00;55.00;;;;;;4996669;28;20269;-82
2023/08/09 04:19:52;;;;;;;1.85;1.60;;;22.00;55.10;;;;;;4996408;28;20217;-82
2023/08/09 04:22:19;;;;;;;3.05;1.65;;;22.00;55.10;;;;;;4997111;28;20212;-82
2023/08/09 04:24:46;;;;;;;2.05;1.85;;;22.00;55.10;;;;;;4996040;28;20292;-82
2023/08/09 04:27:14;;;;;;;1.80;1.70;;;21.90;55.00;;;;;;4996510;28;20205;-84
2023/08/09 04:29:41;;;;;;;1.75;1.65;;;22.00;55.10;;;;;;4997809;28;20201;-83
2023/08/09 04:32:08;;;;;;;2.70;1.90;;;22.00;55.20;;;;;;4995845;28;20217;-82
2023/08/09 04:34:36;;;;;;;2.03;1.83;;;21.90;55.10;;;;;;4995814;28;20193;-80
2023/08/09 04:37:03;;;;;;;1.80;1.70;;;21.90;55.20;;;;;;4996001;28;20201;-80
2023/08/09 04:39:30;;;;;;;2.75;1.70;;;22.00;55.30;;;;;;4995496;28;20225;-79
2023/08/09 04:41:57;;;;;;;2.05;1.88;;;21.90;55.40;;;;;;4995343;28;20224;-79
2023/08/09 04:44:25;;;;;;;1.80;1.70;;;21.90;55.50;;;;;;4995107;28;20432;-79
2023/08/09 04:46:52;;;;;;;1.73;1.63;;;21.90;56.20;;;;;;4995618;28;20484;-79
2023/08/09 04:49:20;;;;;;;2.67;1.80;;;21.90;55.60;;;;;;4995924;28;20197;-79
2023/08/09 04:51:48;;;;;;;1.98;1.77;;;21.90;55.70;;;;;;4995441;28;20217;-79
2023/08/09 04:54:15;;;;;;;2.45;1.80;;;21.90;55.70;;;;;;4995478;28;20212;-79
2023/08/09 04:56:42;;;;;;;1.70;1.60;;;21.90;55.80;;;;;;4994756;28;20212;-79
2023/08/09 04:59:09;;;;;;;2.00;1.80;;;21.90;56.00;;;;;;4994908;28;20731;-79
2023/08/09 05:01:36;;;;;;;2.00;1.70;;;21.90;56.10;;;;;;4994708;28;20217;-79
2023/08/09 05:04:03;;;;;;;2.22;1.83;;;21.90;56.10;;;;;;4994739;28;20209;-79
2023/08/09 05:06:31;;;;;;;1.63;1.50;;;21.90;56.10;;;;;;4995209;28;20288;-79
2023/08/09 05:08:59;;;;;;;1.80;1.70;;;21.80;56.00;;;;;;4994600;28;20197;-79
2023/08/09 05:11:26;;;;;;;2.05;1.85;;;21.90;56.10;;;;;;4994401;28;20221;-79
2023/08/09 05:13:53;;;;;;;2.25;1.67;;;21.90;56.10;;;;;;4994805;28;20206;-79
2023/08/09 05:16:24;;;;;;;2.90;1.60;;;21.90;56.10;;;;;;4994924;28;20205;-78
2023/08/09 05:18:51;;;;;;;3.08;2.00;;;21.90;56.30;;;;;;4994547;28;20218;-79
2023/08/09 05:21:18;;;;;;;1.83;1.63;;;21.90;56.00;;;;;;4994378;28;20644;-80
2023/08/09 05:23:45;;;;;;;1.90;1.50;;;21.90;56.00;;;;;;4995421;28;20197;-79
2023/08/09 05:26:14;;;;;;;2.08;1.63;;;21.90;55.90;;;;;;4994431;28;20656;-80
2023/08/09 05:28:41;;;;;;;1.88;1.60;;;21.80;55.70;;;;;;4994367;28;20202;-80
2023/08/09 05:31:08;;;;;;;1.77;1.60;;;21.80;55.70;;;;;;4994279;28;20217;-82
2023/08/09 05:33:36;;;;;;;1.77;1.67;;;21.80;55.60;;;;;;4994808;28;20198;-82
2023/08/09 05:36:03;;;;;;;1.52;1.42;;;21.80;55.50;;;;;;5011262;28;20197;-82
2023/08/09 05:38:30;;;;;;;3.00;1.70;;;21.80;55.50;;;;;;4978132;28;20205;-82
2023/08/09 05:40:58;;;;;;;1.92;1.60;;;21.80;55.40;;;;;;4995857;28;20240;-82
2023/08/09 05:43:26;;;;;;;1.67;1.58;;;21.80;55.30;;;;;;4995383;28;20202;-81
2023/08/09 05:45:53;;;;;;;2.60;1.50;;;21.80;55.30;;;;;;4994997;28;20207;-80
2023/08/09 05:48:21;;;;;;;2.42;1.52;;;21.80;55.30;;;;;;4994956;28;20204;-80
2023/08/09 05:50:48;;;;;;;1.50;1.40;;;21.80;55.30;;;;;;4994934;28;20268;-80
2023/08/09 05:53:15;;;;;;;2.13;1.60;;;21.80;55.20;;;;;;4994398;28;20220;-80
2023/08/09 05:55:42;;;;;;;1.63;1.52;;;21.90;55.40;;;;;;4994665;28;20629;-80
2023/08/09 05:58:09;;;;;;;2.38;1.95;;;21.80;55.20;;;;;;4994538;28;20193;-80
2023/08/09 06:00:38;;;;;;;2.15;1.80;;;21.90;55.30;;;;;;4994046;28;20618;-80
2023/08/09 06:03:05;;;;;;;1.63;1.52;;;21.90;55.00;;;;;;4995230;28;20289;-80
2023/08/09 06:05:32;;;;;;;1.63;1.52;;;21.80;54.70;;;;;;4994274;28;20292;-80
2023/08/09 06:07:59;;;;;;;2.38;1.60;;;21.90;54.90;;;;;;4993680;28;20208;-80
2023/08/09 06:10:27;;;;;;;1.92;1.73;;;21.90;54.90;;;;;;4994077;28;20221;-80
2023/08/09 06:12:54;;;;;;;2.00;1.80;;;22.00;55.00;;;;;;4994597;28;20205;-80
2023/08/09 06:15:21;;;;;;;1.90;1.50;;;22.00;54.80;;;;;;4996529;28;20201;-80
2023/08/09 06:17:50;;;;;;;1.55;1.40;;;22.00;54.70;;;;;;4980940;28;20307;-80
2023/08/09 06:20:21;;;;;;;1.50;1.40;;;22.10;54.80;;;;;;4996909;28;20260;-81
2023/08/09 06:22:49;;;;;;;1.67;1.58;;;22.10;54.50;;;;;;4996987;28;20205;-80
2023/08/09 06:25:19;;;;;;;2.45;1.80;;;22.20;54.60;;;;;;4994970;28;20562;-80
2023/08/09 06:27:46;;;;;;;2.00;1.83;;;22.20;54.50;;;;;;4994036;28;20220;-80
2023/08/09 06:30:12;;;;;;;1.85;1.58;;;22.20;54.30;;;;;;4993981;28;20220;-80
2023/08/09 06:32:41;;;;;;;1.73;1.52;;;22.30;54.20;;;;;;4994187;28;20255;-80
2023/08/09 06:35:10;;;;;;;2.08;1.60;;;22.30;54.10;;;;;;4993717;28;20229;-80
2023/08/09 06:37:37;;;;;;;2.10;1.70;;;22.30;54.00;;;;;;4993674;28;20251;-80
2023/08/09 06:40:07;;;;;;;1.67;1.58;;;22.30;54.00;;;;;;4993792;28;20213;-80
2023/08/09 06:42:34;;;;;;;1.83;1.58;;;22.40;54.00;;;;;;4994505;28;20597;-80
2023/08/09 06:45:04;;;;;;;1.70;1.40;;;22.30;53.90;;;;;;5010097;28;20217;-80
2023/08/09 06:47:31;;;;;;;2.85;1.50;;;22.30;53.90;;;;;;4993811;28;20614;-80
2023/08/09 06:50:00;;;;;;;1.55;1.45;;;22.30;53.90;;;;;;4994315;28;20225;-81
2023/08/09 06:52:29;;;;;;;1.60;1.50;;;22.30;53.90;;;;;;4993863;28;20570;-80
2023/08/09 06:54:56;;;;;;;3.55;1.50;;;22.40;54.00;;;;;;4993855;28;20679;-80
2023/08/09 06:57:23;;;;;;;1.60;1.50;;;22.30;53.90;;;;;;4993787;28;20236;-79
2023/08/09 06:59:51;;;;;;;1.50;1.40;;;22.30;53.80;;;;;;4993818;28;20220;-80
2023/08/09 07:02:19;;;;;;;1.50;1.40;;;22.40;54.00;;;;;;4994658;28;20529;-80
2023/08/09 07:04:46;;;;;;;2.65;1.60;;;22.40;53.90;;;;;;4993721;28;20292;-80
2023/08/09 07:07:13;;;;;;;2.75;1.73;;;22.40;53.90;;;;;;4993609;28;20271;-80
2023/08/09 07:09:43;;;;;;;2.60;1.58;;;22.40;53.90;;;;;;4993752;28;20201;-80
2023/08/09 07:12:09;;;;;;;2.22;1.60;;;22.50;53.90;;;;;;4994205;28;20638;-80
2023/08/09 07:14:36;;;;;;;1.63;1.52;;;22.50;53.70;;;;;;4994490;28;20198;-80
2023/08/09 07:17:04;;;;;;;1.48;1.38;;;22.40;53.60;;;;;;4994910;28;20251;-80
2023/08/09 07:19:31;;;;;;;1.60;1.50;;;22.50;53.80;;;;;;4997506;28;20268;-80
2023/08/09 07:21:58;;;;;;;1.75;1.60;;;22.50;53.60;;;;;;4998516;28;20235;-80
2023/08/09 07:24:25;;;;;;;1.90;1.48;;;22.50;53.70;;;;;;4998941;28;20209;-80
2023/08/09 07:26:54;;;;;;;1.70;1.60;;;22.60;53.70;;;;;;5016350;28;20211;-80
2023/08/09 07:29:21;;;;;;;1.75;1.50;;;22.50;53.80;;;;;;4998725;28;20383;-80
2023/08/09 07:31:48;;;;;;;1.50;1.40;;;22.60;53.90;;;;;;4998252;28;20245;-80
2023/08/09 07:34:16;;;;;;;1.60;1.42;;;22.50;53.90;;;;;;4998448;28;20256;-80
2023/08/09 07:36:43;;;;;;;2.47;1.50;;;22.50;53.90;;;;;;4997651;28;20296;-80
2023/08/09 07:39:10;;;;;;;1.45;1.35;;;22.60;54.00;;;;;;4998073;28;20199;-80
2023/08/09 07:41:38;;;;;;;1.55;1.45;;;22.60;53.70;;;;;;4997333;28;20221;-80
2023/08/09 07:44:06;;;;;;;1.63;1.50;;;22.60;53.70;;;;;;4997889;28;20687;-80
2023/08/09 07:46:34;;;;;;;2.00;1.80;;;22.60;53.70;;;;;;4996686;28;20221;-80
2023/08/09 07:49:01;;;;;;;1.67;1.58;;;22.60;53.60;;;;;;4996421;28;20208;-80
2023/08/09 07:51:28;;;;;;;1.92;1.40;;;22.70;53.70;;;;;;4996871;28;20233;-80
2023/08/09 07:53:55;;;;;;;1.50;1.40;;;22.70;53.50;;;;;;4997222;28;20196;-80
2023/08/09 07:56:22;;;;;;;1.60;1.50;;;22.60;53.40;;;;;;4996731;28;20201;-80
2023/08/09 07:58:49;;;;;;;1.60;1.50;;;22.60;53.30;;;;;;4997119;28;20197;-80
2023/08/09 08:01:17;;;;;;;2.10;1.50;;;22.70;53.30;;;;;;4996828;28;20232;-80
2023/08/09 08:03:44;;;;;;;1.67;1.58;;;22.80;53.30;;;;;;4996510;28;20268;-80
2023/08/09 08:06:11;;;;;;;2.50;1.50;;;22.80;53.30;;;;;;4996513;28;20205;-80
2023/08/09 08:08:38;;;;;;;1.60;1.35;;;22.70;53.10;;;;;;4996379;28;20206;-80
2023/08/09 08:11:05;;;;;;;2.08;1.33;;;22.90;53.10;;;;;;4996637;28;20213;-80
2023/08/09 08:13:32;;;;;;;2.10;1.40;;;22.90;53.10;;;;;;4980821;28;20242;-80
2023/08/09 08:15:59;;;;;;;2.15;1.48;;;22.90;53.00;;;;;;4996285;28;20307;-80
2023/08/09 08:18:27;;;;;;;1.55;1.42;;;22.80;52.90;;;;;;4996216;28;20196;-80
2023/08/09 08:20:55;;;;;;;1.70;1.60;;;22.80;52.90;;;;;;4996325;28;20233;-80
2023/08/09 08:23:22;;;;;;;1.63;1.52;;;22.90;52.90;;;;;;4996059;28;20212;-80
2023/08/09 08:25:49;;;;;;;1.85;1.65;;;22.90;52.90;;;;;;4997584;28;20205;-80
2023/08/09 08:28:16;;;;;;;2.20;1.40;;;22.90;52.90;;;;;;4996958;28;20218;-80
2023/08/09 08:30:44;;;;;;;1.63;1.42;;;22.90;52.70;;;;;;4979842;28;20213;-80
2023/08/09 08:33:11;;;;;;;1.55;1.45;;;23.00;52.60;;;;;;4997196;28;20236;-80
2023/08/09 08:35:43;;;;;;;1.67;1.48;;;23.00;52.60;;;;;;4997364;28;20194;-80
2023/08/09 08:38:10;;;;;;;1.70;1.60;;;23.00;52.70;;;;;;4997260;28;20640;-80
2023/08/09 08:40:38;;;;;;;2.05;1.50;;;23.00;52.60;;;;;;4996388;28;20288;-80
2023/08/09 08:43:08;;;;;;;1.70;1.60;;;23.00;52.60;;;;;;4995921;28;20220;-80
2023/08/09 08:45:38;;;;;;;1.42;1.30;;;23.00;52.50;;;;;;4996557;28;20207;-80
2023/08/09 08:48:06;;;;;;;1.50;1.40;;;23.10;52.60;;;;;;4997231;28;20189;-80
2023/08/09 08:50:33;;;;;;;2.40;1.40;;;23.10;52.50;;;;;;4997307;28;20287;-79
2023/08/09 08:53:02;;;;;;;1.83;1.50;;;23.10;52.50;;;;;;4994505;28;20276;-79
2023/08/09 08:55:30;;;;;;;1.83;1.55;;;23.10;52.30;;;;;;5010980;28;20206;-79
2023/08/09 08:57:57;;;;;;;1.50;1.40;;;23.10;52.30;;;;;;4994805;28;20213;-79
2023/08/09 09:00:24;;;;;;;1.50;1.40;;;23.10;52.10;;;;;;5004128;28;20225;-79
2023/08/09 09:02:51;;;;;;;1.77;1.58;;;23.10;52.20;;;;;;5001696;28;20201;-79
2023/08/09 09:05:18;;;;;;;1.60;1.50;;;23.10;52.10;;;;;;5000301;28;20193;-79
2023/08/09 09:07:46;;;;;;;2.00;1.80;;;23.20;52.20;;;;;;5002003;28;20185;-79
2023/08/09 09:10:14;;;;;;;1.73;1.50;;;23.10;52.00;;;;;;5000350;28;20561;-79
2023/08/09 09:12:41;;;;;;;2.08;1.65;;;23.20;52.10;;;;;;4999988;28;20190;-79
2023/08/09 09:15:09;;;;;;;1.83;1.63;;;23.20;52.00;;;;;;5000578;28;20201;-79
2023/08/09 09:17:39;;;;;;;1.92;1.60;;;23.20;52.00;;;;;;4998770;28;20208;-80
2023/08/09 09:20:10;;;;;;;1.70;1.52;;;23.30;52.50;;;;;;4999291;28;20225;-80
2023/08/09 09:22:38;;;;;;;1.60;1.50;;;23.20;51.80;;;;;;4998869;28;20216;-80
2023/08/09 09:25:10;;;;;;;1.30;1.20;;;23.30;51.80;;;;;;4998975;28;20272;-79
2023/08/09 09:27:40;;;;;;;1.73;1.30;;;23.30;51.70;;;;;;4983782;28;20190;-79
2023/08/09 09:30:12;;;;;;;2.53;1.45;;;23.40;51.70;;;;;;4999518;28;20556;-79
2023/08/09 09:32:40;;;;;;;2.22;1.67;;;23.40;51.70;;;;;;4998548;28;20205;-79
2023/08/09 09:35:08;;;;;;;1.90;1.60;;;23.40;51.60;;;;;;4982781;28;20536;-79
2023/08/09 09:37:35;;;;;;;2.47;1.65;;;23.40;51.60;;;;;;4996262;28;20197;-79
2023/08/09 09:40:02;;;;;;;3.15;1.38;;;23.50;51.60;;;;;;4993826;28;20229;-79
2023/08/09 09:42:32;;;;;;;1.42;1.33;;;23.50;51.60;;;;;;4994053;28;20660;-79
2023/08/09 09:45:07;;;;;;;1.58;1.48;;;23.50;51.50;;;;;;4995084;28;20236;-79
2023/08/09 09:47:38;;;;;;;1.85;1.50;;;23.50;51.50;;;;;;4994660;28;20259;-80
2023/08/09 09:50:07;;;;;;;2.70;1.77;;;23.40;51.40;;;;;;4994992;28;20193;-80
2023/08/09 09:52:36;;;;;;;1.40;1.30;;;23.50;51.50;;;;;;4999484;28;20208;-80
2023/08/09 09:55:03;;;;;;;1.70;1.52;;;23.50;51.40;;;;;;5000261;28;20236;-80
2023/08/09 09:57:30;;;;;;;1.67;1.50;;;23.50;51.40;;;;;;4999933;28;20198;-80
2023/08/09 09:59:57;;;;;;;1.50;1.40;;;23.50;51.40;;;;;;5000571;28;20220;-79
2023/08/09 10:02:30;;;;;;;2.03;1.52;;;23.50;51.40;;;;;;4994443;28;20206;-79
2023/08/09 10:04:59;;;;;;;2.13;1.38;;;23.60;51.50;;;;;;4994332;28;20296;-81
2023/08/09 10:07:29;;;;;;;2.13;1.40;;;23.50;51.40;;;;;;4994663;28;20223;-81
2023/08/09 10:09:57;;;;;;;1.98;1.38;;;23.50;51.30;;;;;;4994324;28;20193;-81
2023/08/09 10:12:24;;;;;;;2.53;1.40;;;23.60;51.30;;;;;;4994444;28;20212;-81
2023/08/09 10:14:52;;;;;;;2.47;1.60;;;23.60;51.20;;;;;;4993879;28;20256;-80
2023/08/09 10:17:19;;;;;;;1.60;1.50;;;23.60;51.20;;;;;;4993837;28;20291;-80
2023/08/09 10:19:48;;;;;;;2.28;1.20;;;23.60;51.10;;;;;;4978217;28;20197;-80
2023/08/09 10:22:18;;;;;;;1.80;1.50;;;23.70;51.20;;;;;;4993455;28;20229;-80
2023/08/09 10:24:47;;;;;;;1.70;1.60;;;23.70;51.10;;;;;;4993805;28;20212;-79
2023/08/09 10:27:14;;;;;;;1.70;1.60;;;23.70;51.10;;;;;;5010204;28;20208;-80
2023/08/09 10:29:41;;;;;;;1.67;1.58;;;23.60;51.00;;;;;;4993952;28;20229;-80
2023/08/09 10:32:09;;;;;;;1.70;1.60;;;23.70;51.00;;;;;;4983134;28;20220;-79
2023/08/09 10:34:36;;;;;;;1.70;1.23;;;23.70;51.10;;;;;;4994224;28;20198;-80
2023/08/09 10:37:05;;;;;;;1.45;1.35;;;23.60;51.00;;;;;;4994662;28;20232;-79
2023/08/09 10:39:33;;;;;;;2.08;1.60;;;23.60;51.00;;;;;;4995227;28;20295;-80
2023/08/09 10:42:03;;;;;;;3.22;1.55;;;23.70;51.10;;;;;;4994630;28;20308;-80
2023/08/09 10:44:34;;;;;;;1.75;1.50;;;23.60;51.00;;;;;;4993872;28;20546;-80
2023/08/09 10:47:05;;;;;;;1.50;1.40;;;23.60;51.00;;;;;;4993739;28;20202;-79
2023/08/09 10:50:09;;;;;;;1.70;1.50;;;23.60;51.00;;;;;;4994766;28;20572;-79
2023/08/09 10:52:38;;;;;;;1.92;1.40;;;23.60;51.00;;;;;;4995799;28;20255;-80
2023/08/09 10:55:26;;;;;;;2.03;1.50;;;23.60;50.90;;;;;;4999360;28;20228;-80
2023/08/09 10:57:54;;;;;;;2.50;1.65;;;23.60;50.90;;;;;;4997810;28;20280;-79
2023/08/09 11:00:23;;;;;;;1.60;1.50;;;23.60;50.80;;;;;;4997670;28;20245;-79
2023/08/09 11:02:50;;;;;;;1.88;1.40;;;23.70;50.90;;;;;;5013845;28;20194;-79
2023/08/09 11:05:18;;;;;;;1.50;1.40;;;23.70;50.70;;;;;;4997760;28;20201;-79
2023/08/09 11:07:46;;;;;;;1.42;1.30;;;23.80;50.70;;;;;;4997465;28;20620;-80
2023/08/09 11:10:13;;;;;;;1.40;1.30;;;23.80;50.50;;;;;;4997054;28;20253;-79
2023/08/09 11:12:42;;;;;;;1.42;1.33;;;23.90;50.50;;;;;;4998958;28;20585;-79
2023/08/09 11:15:10;;;;;;;1.45;1.35;;;23.90;50.30;;;;;;5013659;28;20236;-79
2023/08/09 11:17:37;;;;;;;2.42;1.73;;;24.00;50.30;;;;;;4981125;28;20193;-79
2023/08/09 11:20:13;;;;;;;2.72;1.63;;;24.10;50.30;;;;;;4997451;28;20229;-79
2023/08/09 11:22:46;;;;;;;1.30;1.20;;;24.10;50.20;;;;;;4982196;28;20209;-79
2023/08/09 11:25:13;;;;;;;2.72;1.60;;;24.10;50.10;;;;;;4982681;28;20202;-79
2023/08/09 11:27:40;;;;;;;1.45;1.35;;;24.10;50.10;;;;;;4997442;28;20567;-79
2023/08/09 11:30:09;;;;;;;1.90;1.60;;;24.10;50.00;;;;;;4998895;28;20200;-79
2023/08/09 11:32:36;;;;;;;1.75;1.50;;;24.20;50.10;;;;;;4980745;28;20295;-80
2023/08/09 11:35:03;;;;;;;1.75;1.40;;;24.20;50.10;;;;;;4996705;28;20205;-80
2023/08/09 11:37:31;;;;;;;3.22;1.48;;;24.20;50.10;;;;;;4996497;28;20205;-79
2023/08/09 11:40:00;;;;;;;1.92;1.50;;;24.20;50.00;;;;;;4996684;28;20201;-80
2023/08/09 11:42:27;;;;;;;3.25;1.65;;;24.20;50.00;;;;;;4997115;28;20217;-80
2023/08/09 11:44:54;;;;;;;1.70;1.60;;;24.20;50.10;;;;;;4996605;28;20646;-80
2023/08/09 11:47:21;;;;;;;1.45;1.35;;;24.20;50.10;;;;;;4980769;28;20197;-80
2023/08/09 11:49:48;;;;;;;2.03;1.50;;;24.20;50.20;;;;;;4996489;28;20202;-80
2023/08/09 11:52:15;;;;;;;1.95;1.50;;;24.30;50.20;;;;;;4996964;28;20213;-79
2023/08/09 11:54:43;;;;;;;1.88;1.30;;;24.30;50.40;;;;;;4996926;28;20243;-80
2023/08/09 11:57:11;;;;;;;2.25;1.50;;;24.30;50.30;;;;;;4997200;28;20201;-80
2023/08/09 11:59:39;;;;;;;1.70;1.60;;;24.30;50.40;;;;;;4996623;28;20312;-80
2023/08/09 12:02:07;;;;;;;2.13;1.40;;;24.30;50.50;;;;;;4997502;28;20739;-80
2023/08/09 12:04:34;;;;;;;2.13;1.45;;;24.30;50.60;;;;;;4995667;28;20205;-80
2023/08/09 12:07:05;;;;;;;2.85;1.58;;;24.30;50.50;;;;;;4996452;28;20197;-80
2023/08/09 12:09:34;;;;;;;1.70;1.50;;;24.40;50.60;;;;;;4996644;28;20194;-79
2023/08/09 12:12:04;;;;;;;2.05;1.20;;;24.40;50.70;;;;;;4996833;28;20218;-80
2023/08/09 12:14:34;;;;;;;1.67;1.40;;;24.50;50.70;;;;;;4997207;28;20190;-80
2023/08/09 12:17:02;;;;;;;3.92;1.60;;;24.50;50.60;;;;;;4998854;28;20205;-79
2023/08/09 12:19:29;;;;;;;1.65;1.40;;;24.50;51.10;;;;;;5000948;28;20221;-79
2023/08/09 12:21:56;;;;;;;1.67;1.42;;;24.50;50.80;;;;;;4982487;28;20240;-79
2023/08/09 12:24:42;;;;;;;2.30;1.42;;;24.50;50.70;;;;;;5024033;22;20193;-81
2023/08/09 12:27:10;;;;;;;3.70;1.52;;;24.60;50.90;;;;;;5022336;28;20241;-79
2023/08/09 12:29:38;;;;;;;2.28;1.30;;;24.60;51.50;;;;;;5040283;28;20202;-80
2023/08/09 12:32:06;;;;;;;2.17;1.30;;;24.50;51.00;;;;;;5039049;28;20211;-80
2023/08/09 12:34:33;;;;;;;2.30;1.40;;;24.50;50.90;;;;;;5039082;28;20253;-80
2023/08/09 12:37:00;;;;;;;3.05;1.50;;;24.60;50.90;;;;;;5022875;28;20249;-80
2023/08/09 12:39:27;;;;;;;3.03;1.42;;;24.60;50.90;;;;;;5056134;28;20183;-80
2023/08/09 12:41:54;;;;;;;2.58;1.50;;;24.60;50.90;;;;;;5040170;28;20313;-79
2023/08/09 12:44:21;;;;;;;2.08;1.55;;;24.60;50.80;;;;;;5039437;28;20195;-79
2023/08/09 12:46:50;;;;;;;1.48;1.38;;;24.60;50.70;;;;;;5039440;28;20203;-79
2023/08/09 12:49:17;;;;;;;1.60;1.50;;;24.60;50.60;;;;;;5039566;28;20199;-79
2023/08/09 12:51:44;;;;;;;1.92;1.50;;;24.60;50.80;;;;;;5038587;28;20211;-79